Latest Observation

42 Stations

15 Minute Data | America/Los_Angeles
as of 8/31/26 11:55 AM PDT
Station Date Time Temp (°F) RH (%) Dew Pt (°F) Wind Spd (mph) Wind Dir (°) Wind Gust (mph) Latest Rain (In) Daily Rain (In) Daily Min Temp (°F) Daily Max Temp (°F) Daily Max Wind (mph)
Elk Mt. Farm 8/13/26 1500 85.6   7.4 - - - - - - - 51.4   1.1 85.6   7.4 -
Upper Lake 8/31/26 1145 79.6   0.3 38   2 51.8   1.5 2.9 SE | 139 6.8   0.0 0.00 0.00 45.4   0.6 80.3   0.5 6.8   0.1
Scotts Valley 8/31/26 1145 80.0   2.0 36   5 50.7   2.2 2.8 SE | 144 6.7   0.7 0.00 0.00 41.2   0.7 81.1   1.2 7.0   1.3
Scotts Valley-South (Bella Vista) 8/31/26 1145 80.2   0.8 31   4 47.2   2.7 1.8 ESE | 120 4.9   1.6 0.00 0.00 46.0   0.0 80.7   1.5 6.4   0.8
Kelseyville 8/31/26 1145 77.7   1.4 38   7 49.8   3.2 2.7 N | 1 6.6   1.1 0.00 0.00 46.4   1.1 78.4   1.7 10.1   1.8
Kelseyville Remote 8/31/26 1145 79.1   1.7 30   8 45.2   4.7 - - - 0.00 0.00 47.6   1.1 79.4   2.0 -
Kelseyville (Clark Drive) 8/31/26 1145 80.4   1.7 - - - - - 0.00 0.00 44.7   1.1 81.1   1.3 -
Kelsey Bench (Oaklea) 8/31/26 1145 78.2   0.7 32   1 46.2   1.8 3.7 NNW | 333 7.2   2.3 0.00 0.00 51.0   0.3 79.4   0.1 7.8   1.6
Smith Lane (Kelseyville-South) 8/31/26 1145 81.9   1.8 31   2 48.2   0.2 2.4 NNW | 346 5.4   1.1 0.00 0.00 44.4   0.7 81.9   1.8 8.2   1.7
Bell Hill-West 8/31/26 1145 79.7   1.1 39   6 52.8   3.5 6.5 W | 260 11.8   3.7 0.00 0.00 47.8   0.7 80.2   0.9 11.8   3.7
High Valley Ridgeline (Brassfield) 8/31/26 1145 75.4   5.2 36   11 46.9   5.4 3.6 S | 172 8.2   4.5 0.00 0.00 61.0   0.0 76.9   4.5 8.2   4.5
Wight Way (Adobe Creek) 8/31/26 1100 80.3   2.0 31   7 47.3   4.5 2.2 W | 281 5.6   2.5 0.00 0.00 44.3   0.9 80.5   1.8 5.6   2.5
Ridgeline Top (Brassfield) 8/31/26 1145 77.5   3.7 - - - - - - - 60.7   0.0 79.0   3.2 -
Ridgeline Low (Brassfield) 8/31/26 1145 78.5   4.1 - - - - - - - 58.0   2.9 79.5   3.7 -
Long Valley (Shannon) 6/29/26 1400 84.9   4.6 25   1 44.9   3.2 2.9 ENE | 75 10.2   0.4 0.00 0.00 46.4   0.4 86.9   6.5 13.7   1.8
High Valley Winery 8/31/26 1145 80.8   1.9 28   10 44.9   9.8 4.5 SSE | 168 8.4   2.7 0.00 0.00 44.4   0.4 81.1   2.2 9.8   6.0
Round Mtn Rd. 8/31/26 1115 80.0   3.3 - - - - - - - 50.8   1.0 81.0   2.3 -
Circle O 8/31/26 1145 77.6   4.8 - - - - - - - 47.9   0.1 79.0   4.2 -
Robertsbridge Vineyards 8/31/26 1145 80.9   1.5 30   9 46.9   7.7 - - - - - 46.6   0.6 81.4   1.6 -
Urgency Vineyard 8/31/26 1145 80.2   1.0 30   9 45.7   8.9 3.3 NE | 43 6.6   3.4 0.00 0.00 43.8   0.5 80.5   1.9 9.4   1.0
Red Hills (Beckstoffer) 8/31/26 1145 80.3   3.0 31   12 47.2   9.8 - - - 0.00 0.00 40.1   1.2 82.0   1.3 -
Winters (Shannon) 8/31/26 1145 79.6   2.7 29   11 44.5   10.7 4.5 E | 84 10.4   3.1 0.00 0.00 39.4   1.9 80.1   2.6 10.4   3.1
Secret Pond (Shannon) 8/31/26 1145 78.4   2.8 31   12 45.4   10.1 2.9 ESE | 106 8.6   0.7 0.00 0.00 43.0   2.1 78.8   2.4 8.9   3.2
Rolling Knolls (Shannon) 8/31/26 1145 79.9   3.8 37   16 51.7   11.2 2.1 NNE | 15 4.9   1.5 0.00 0.00 43.4   1.3 80.0   3.8 4.9   1.5
Lower Lake 8/31/26 1145 80.0   3.1 34   13 48.9   9.8 3.4 SE | 125 12.4   1.5 0.00 0.00 51.3   0.6 80.5   3.2 12.4   0.4
Adamson Ranch 8/31/26 1145 80.7   3.3 34   13 49.6   10.1 5.7 SSE | 161 10.7   2.2 0.00 0.00 45.7   1.1 81.4   2.8 10.7   1.8
Middletown (Diamond D) 8/31/26 1145 76.9   7.0 45   17 54.0   6.8 4.0 N | 354 7.8   2.2 0.00 0.00 44.1   1.5 77.3   7.5 7.8   2.8
Middletown-West (Domaine Helena) 8/31/26 1145 79.2   4.2 39   15 52.4   8.7 5.5 NE | 47 9.9   0.1 0.00 0.00 41.6   1.8 79.2   5.9 9.9   1.4
Middletown-South 8/31/26 1145 78.3   5.4 40   17 51.7   10.1 3.5 NNE | 29 6.9   1.8 0.00 0.00 45.2   2.2 79.2   4.9 7.1   1.9
Jim Davis (Langtry) 8/31/26 1145 73.6   10.5 49   22 53.6   7.0 4.7 SE | 136 10.2   1.9 0.00 0.00 51.6   1.6 74.0   10.2 10.4   1.4
Napa Valley Basin 8/31/26 1145 73.6   11.2 49   23 53.4   7.1 7.2 SSW | 207 11.9   2.0 0.00 0.00 43.3   0.3 74.0   11.6 11.9   2.0
Lower Bohn 8/31/26 1145 73.5   10.8 49   24 53.4   8.0 5.5 SW | 219 9.7   0.7 0.00 0.00 42.6   0.4 74.6   11.3 10.1   1.0
Upper Bohn-North 8/31/26 1145 73.9   10.3 44   23 50.9   10.7 4.9 SE | 140 11.8   3.2 0.00 0.00 48.5   1.7 75.4   9.9 11.8   2.9
Snell Peak Blk#9 8/31/26 1145 71.5   12.2 47   25 50.4   8.7 4.5 SSE | 149 11.2   3.7 0.00 0.00 51.6   2.1 72.4   11.3 11.2   2.2
Coyote Lake West 8/31/26 1145 72.3   12.0 51   20 53.2   2.9 5.0 SE | 125 11.9   2.8 0.00 0.00 47.8   3.2 72.4   11.9 12.2   3.1
Coyote Lake Northeast 8/31/26 1145 72.9   11.2 51   21 53.6   4.1 - - - - - 52.2   0.3 73.6   11.1 -
Coyote Lake East 8/31/26 1145 72.9   11.8 51   23 53.7   6.1 - - - - - 44.7   0.3 73.3   11.5 -
Morgan Valley 8/31/26 1145 71.4   6.1 54   23 53.7   9.8 6.2 S | 174 10.1   2.2 0.00 0.00 60.2   3.3 71.4   7.6 10.8   3.6
Mine Pit North 8/31/26 1145 74.5   7.0 46   25 52.7   14.3 7.9 SSW | 192 13.8   1.5 - - 54.9   2.8 76.1   6.4 13.8   5.2
Mine Pit South 8/31/26 1145 73.8   5.7 44   20 50.6   11.2 5.6 SSW | 195 11.2   4.5 0.00 0.00 53.6   5.1 74.7   5.5 11.2   11.6
Cow Mountain 8/31/26 1145 65.6   10.9 - - 6.3 W | 264 10.3   1.3 0.00 0.00 61.3   2.5 72.9   4.6 12.7   2.2
Ukiah-SE (Ruddick) 8/31/26 1145 74.0   3.8 40   4 48.4   0.3 2.3 SSW | 212 5.2   1.3 0.00 0.00 47.0   2.3 74.9   3.4 6.3   0.9
Max     81.9 54 54.0 7.9 - 13.8 0.00 0.00 61.3 82.0 13.8
Avg     77.1 39 49.9 4.3 - 8.9 0.00 - - - -
Min     65.6 28 44.5 1.8 - 4.9 0.00 0.00 39.4 71.4 4.9